createdAt,value
2019-05-10T00:01:26.259Z,26.10
2019-05-10T00:04:39.676Z,26.10
2019-05-10T00:07:51.850Z,26.00
2019-05-10T00:10:52.131Z,26.00
2019-05-10T00:13:51.444Z,26.00
2019-05-10T00:16:46.980Z,26.00
2019-05-10T00:19:44.623Z,26.10
2019-05-10T00:22:40.563Z,26.30
2019-05-10T00:25:35.792Z,26.50
2019-05-10T00:28:31.978Z,26.70
2019-05-10T00:31:27.159Z,26.90
2019-05-10T00:34:22.537Z,27.00
2019-05-10T00:37:18.063Z,27.20
2019-05-10T00:40:13.666Z,27.20
2019-05-10T00:43:09.291Z,27.40
2019-05-10T00:46:04.431Z,27.50
2019-05-10T00:48:59.599Z,27.50
2019-05-10T00:51:54.962Z,27.60
2019-05-10T00:54:53.398Z,27.70
2019-05-10T00:57:48.468Z,27.70
2019-05-10T01:00:43.892Z,27.90
2019-05-10T01:03:40.148Z,28.00
2019-05-10T01:06:35.532Z,28.10
2019-05-10T01:09:30.620Z,28.20
2019-05-10T01:12:25.677Z,28.30
2019-05-10T01:15:21.246Z,28.30
2019-05-10T01:18:16.753Z,28.40
2019-05-10T01:21:12.592Z,28.50
2019-05-10T01:24:08.238Z,28.60
2019-05-10T01:27:03.563Z,28.60
2019-05-10T01:29:59.321Z,28.70
2019-05-10T01:32:56.126Z,28.70
2019-05-10T01:35:51.766Z,28.80
2019-05-10T01:38:47.417Z,28.90
2019-05-10T01:41:43.077Z,28.90
2019-05-10T01:44:39.173Z,29.00
2019-05-10T01:47:35.347Z,29.00
2019-05-10T01:50:31.075Z,29.10
2019-05-10T01:53:27.044Z,29.20
2019-05-10T01:56:23.902Z,29.20
2019-05-10T01:59:19.879Z,29.20
2019-05-10T02:02:16.559Z,29.30
2019-05-10T02:05:12.042Z,29.30
2019-05-10T02:08:07.138Z,29.30
2019-05-10T02:11:02.539Z,29.40
2019-05-10T02:13:57.569Z,29.40
2019-05-10T02:16:54.790Z,29.40
2019-05-10T02:19:50.464Z,29.40
2019-05-10T02:22:45.939Z,29.40
2019-05-10T02:25:42.320Z,29.40
2019-05-10T02:28:38.651Z,29.50
2019-05-10T02:31:33.557Z,29.50
2019-05-10T02:34:31.069Z,29.50
2019-05-10T02:37:28.785Z,29.50
2019-05-10T02:40:24.342Z,29.60
2019-05-10T02:43:20.331Z,29.60
2019-05-10T02:46:18.047Z,29.60
2019-05-10T02:49:13.774Z,29.60
2019-05-10T02:52:09.605Z,29.60
2019-05-10T02:55:07.000Z,29.60
2019-05-10T02:58:03.266Z,29.70
2019-05-10T03:01:01.332Z,29.70
2019-05-10T03:03:59.519Z,29.70
2019-05-10T03:06:58.007Z,29.70
2019-05-10T03:09:53.769Z,29.70
2019-05-10T03:12:49.971Z,29.80
2019-05-10T03:15:47.959Z,29.70
2019-05-10T03:18:46.343Z,29.70
2019-05-10T03:21:44.054Z,29.80
2019-05-10T03:24:39.149Z,29.80
2019-05-10T03:27:35.087Z,29.80
2019-05-10T03:30:30.443Z,29.80
2019-05-10T03:33:26.093Z,29.80
2019-05-10T03:36:21.864Z,29.80
2019-05-10T03:39:17.162Z,29.90
2019-05-10T03:42:12.227Z,29.90
2019-05-10T03:45:09.216Z,29.90
2019-05-10T03:48:07.872Z,29.90
2019-05-10T03:51:12.921Z,29.90
2019-05-10T03:54:23.062Z,30.00
2019-05-10T03:57:34.063Z,30.00
2019-05-10T04:00:29.932Z,30.00
2019-05-10T04:07:10.562Z,30.00
2019-05-10T04:10:12.045Z,30.00
2019-05-10T04:13:24.181Z,30.00
2019-05-10T04:16:19.495Z,30.00
2019-05-10T04:19:20.920Z,30.00
2019-05-10T04:22:17.652Z,30.00
2019-05-10T04:25:13.480Z,30.00
2019-05-10T04:28:09.026Z,30.10
2019-05-10T04:31:04.708Z,30.10
2019-05-10T04:34:00.020Z,30.10
2019-05-10T04:36:55.240Z,30.10
2019-05-10T04:39:50.536Z,30.00
2019-05-10T04:42:46.945Z,29.70
2019-05-10T04:45:42.666Z,29.50
2019-05-10T04:48:38.154Z,29.30
2019-05-10T04:51:33.815Z,29.10
2019-05-10T04:54:29.894Z,29.00
2019-05-10T04:57:25.737Z,28.90
2019-05-10T05:00:26.583Z,28.80
2019-05-10T05:03:22.117Z,28.70
2019-05-10T05:06:18.795Z,28.70
2019-05-10T05:09:15.138Z,28.60
2019-05-10T05:12:10.741Z,28.70
2019-05-10T05:15:09.280Z,28.90
2019-05-10T05:18:09.637Z,29.00
2019-05-10T05:21:28.436Z,29.10
2019-05-10T05:24:28.214Z,29.30
2019-05-10T05:27:34.768Z,29.40
2019-05-10T05:30:30.176Z,29.40
2019-05-10T05:34:13.281Z,29.50
2019-05-10T05:37:19.948Z,29.50
2019-05-10T05:40:23.212Z,29.60
2019-05-10T05:43:24.599Z,29.70
2019-05-10T05:46:24.168Z,29.70
2019-05-10T05:49:26.213Z,29.70
2019-05-10T05:52:25.271Z,29.70
2019-05-10T05:55:23.554Z,29.80
2019-05-10T05:58:27.388Z,29.80
2019-05-10T06:09:39.446Z,29.90
2019-05-10T06:12:44.555Z,29.90
2019-05-10T06:15:41.063Z,30.00
2019-05-10T06:18:41.785Z,30.00
2019-05-10T06:21:44.475Z,30.00
2019-05-10T06:24:46.914Z,30.10
2019-05-10T06:27:43.280Z,30.10
2019-05-10T06:30:48.616Z,30.10
2019-05-10T06:33:46.890Z,30.10
2019-05-10T06:36:44.993Z,30.10
2019-05-10T06:39:45.160Z,30.20
2019-05-10T06:42:40.202Z,30.20
2019-05-10T06:45:36.911Z,30.20
2019-05-10T06:48:34.726Z,30.30
2019-05-10T06:51:32.319Z,30.30
2019-05-10T06:54:28.941Z,30.30
2019-05-10T06:57:24.586Z,30.30
2019-05-10T07:00:26.074Z,30.30
2019-05-10T07:03:21.287Z,30.40
2019-05-10T07:06:16.832Z,30.40
2019-05-10T07:09:18.115Z,30.40
2019-05-10T07:12:15.177Z,30.40
2019-05-10T07:15:13.110Z,30.40
2019-05-10T07:18:16.765Z,30.50
2019-05-10T07:21:16.370Z,30.50
2019-05-10T07:24:18.292Z,30.50
2019-05-10T07:27:21.666Z,30.50
2019-05-10T07:40:29.591Z,30.50
2019-05-10T07:42:47.140Z,30.60
2019-05-10T07:45:50.934Z,30.60
2019-05-10T07:48:53.524Z,30.60
2019-05-10T07:51:46.551Z,30.60
2019-05-10T07:54:45.915Z,30.60
2019-05-10T07:57:42.833Z,30.60
2019-05-10T08:04:12.904Z,30.60
2019-05-10T08:07:11.392Z,30.70
2019-05-10T08:10:13.602Z,30.60
2019-05-10T08:13:25.297Z,30.60
2019-05-10T08:19:39.369Z,30.70
2019-05-10T08:22:42.309Z,30.70
2019-05-10T08:25:43.929Z,30.70
2019-05-10T08:28:43.802Z,30.70
2019-05-10T08:31:40.372Z,30.70
2019-05-10T08:34:51.690Z,30.70
2019-05-10T08:37:45.393Z,30.70
2019-05-10T08:40:48.861Z,30.70
2019-05-10T08:43:47.096Z,30.70
2019-05-10T08:46:44.332Z,30.80
2019-05-10T08:50:08.105Z,30.80
2019-05-10T08:53:11.009Z,30.80
2019-05-10T08:56:07.693Z,30.80
2019-05-10T09:07:06.059Z,30.80
2019-05-10T09:09:49.776Z,30.80
2019-05-10T09:12:50.883Z,30.80
2019-05-10T09:15:51.202Z,30.80
2019-05-10T09:18:46.702Z,30.80
2019-05-10T09:21:49.667Z,30.90
2019-05-10T09:24:48.685Z,30.90
2019-05-10T09:27:43.417Z,31.00
2019-05-10T09:30:56.469Z,31.00
2019-05-10T09:34:02.647Z,31.10
2019-05-10T09:37:26.145Z,31.10
2019-05-10T09:44:55.812Z,31.20
2019-05-10T09:47:53.709Z,31.30
2019-05-10T09:50:55.132Z,31.30
2019-05-10T09:53:48.625Z,31.40
2019-05-10T09:56:58.855Z,31.40
2019-05-10T09:59:57.201Z,31.40
2019-05-10T10:02:57.039Z,31.40
2019-05-10T10:05:55.056Z,31.50
2019-05-10T10:08:53.259Z,31.50
2019-05-10T10:12:02.663Z,31.50
2019-05-10T10:14:54.266Z,31.50
2019-05-10T10:17:54.105Z,31.50
2019-05-10T10:20:49.193Z,31.50
2019-05-10T10:23:46.403Z,31.60
2019-05-10T10:26:45.113Z,31.60
2019-05-10T10:29:40.842Z,31.60
2019-05-10T10:32:39.804Z,31.60
2019-05-10T10:35:38.094Z,31.60
2019-05-10T10:38:45.072Z,31.60
2019-05-10T10:41:36.707Z,31.60
2019-05-10T10:44:31.380Z,31.60
2019-05-10T10:47:32.018Z,31.60
2019-05-10T10:50:27.585Z,31.70
2019-05-10T10:53:28.250Z,31.70
2019-05-10T10:56:28.248Z,31.70
2019-05-10T10:59:25.098Z,31.80
2019-05-10T11:02:41.942Z,31.80
2019-05-10T11:05:49.584Z,31.80
2019-05-10T11:08:46.552Z,31.90
2019-05-10T11:11:44.726Z,31.90
2019-05-10T11:14:45.211Z,31.90
2019-05-10T11:17:41.464Z,31.90
2019-05-10T11:20:42.009Z,31.90
2019-05-10T11:23:39.038Z,31.90
2019-05-10T11:26:36.998Z,31.90
2019-05-10T11:29:41.738Z,31.90
2019-05-10T11:32:34.760Z,31.90
2019-05-10T11:35:34.639Z,32.00
2019-05-10T11:38:41.743Z,32.00
2019-05-10T11:41:37.027Z,32.00
2019-05-10T11:44:31.927Z,32.00
2019-05-10T11:47:32.718Z,32.00
2019-05-10T11:50:34.916Z,32.00
2019-05-10T11:53:26.245Z,32.00
2019-05-10T11:59:03.716Z,32.10
2019-05-10T12:02:43.221Z,32.00
2019-05-10T12:05:31.773Z,32.00
2019-05-10T12:08:24.048Z,32.00
2019-05-10T12:14:15.830Z,32.10
2019-05-10T12:17:13.806Z,32.10
2019-05-10T12:20:07.274Z,32.10
2019-05-10T12:23:04.335Z,32.10
2019-05-10T12:25:59.519Z,32.00
2019-05-10T12:26:59.195Z,32.00
2019-05-10T12:27:12.723Z,32.10
2019-05-10T12:29:11.531Z,32.10
2019-05-10T12:32:00.428Z,32.10
2019-05-10T12:34:58.376Z,32.20
2019-05-10T12:37:57.693Z,32.20
2019-05-10T12:40:54.863Z,32.20
2019-05-10T12:44:02.956Z,32.20
2019-05-10T12:46:53.788Z,32.20
2019-05-10T12:49:46.967Z,32.20
2019-05-10T12:52:53.675Z,32.20
2019-05-10T12:55:44.766Z,32.20
2019-05-10T12:58:40.759Z,32.20
2019-05-10T13:01:36.979Z,32.20
2019-05-10T13:04:40.604Z,32.20
2019-05-10T13:07:36.693Z,32.20
2019-05-10T13:10:30.041Z,32.30
2019-05-10T13:13:29.892Z,32.20
2019-05-10T13:16:24.188Z,32.20
2019-05-10T13:19:21.715Z,32.20
2019-05-10T13:22:17.939Z,32.20
2019-05-10T13:25:15.255Z,32.30
2019-05-10T13:28:13.840Z,32.30
2019-05-10T13:31:08.701Z,32.30
2019-05-10T13:34:05.345Z,32.30
2019-05-10T13:37:02.081Z,32.30
2019-05-10T13:40:05.648Z,32.30
2019-05-10T13:42:57.572Z,32.30
2019-05-10T13:45:55.283Z,32.30
2019-05-10T13:48:53.066Z,32.30
2019-05-10T13:51:47.882Z,32.40
2019-05-10T13:54:42.014Z,32.40
2019-05-10T13:57:36.135Z,32.40
2019-05-10T14:00:34.183Z,32.40
2019-05-10T14:03:42.215Z,32.40
2019-05-10T14:06:23.803Z,32.40
2019-05-10T14:09:20.923Z,32.40
2019-05-10T14:12:16.199Z,32.40
2019-05-10T14:15:13.572Z,32.30
2019-05-10T14:18:07.685Z,32.30
2019-05-10T14:21:15.316Z,32.30
2019-05-10T14:24:15.100Z,32.30
2019-05-10T14:27:06.536Z,32.30
2019-05-10T14:30:01.114Z,32.20
2019-05-10T14:32:56.255Z,32.20
2019-05-10T14:35:55.128Z,32.30
2019-05-10T14:38:53.534Z,32.20
2019-05-10T14:41:45.178Z,32.20
2019-05-10T14:44:41.407Z,32.20
2019-05-10T14:47:46.767Z,32.20
2019-05-10T14:50:32.069Z,32.10
2019-05-10T14:53:27.334Z,32.10
2019-05-10T14:56:22.639Z,32.10
2019-05-10T14:59:17.182Z,32.10
2019-05-10T15:02:16.851Z,32.10
2019-05-10T15:05:16.127Z,32.00
2019-05-10T15:08:05.828Z,32.00
2019-05-10T15:11:00.628Z,32.00
2019-05-10T15:13:55.566Z,32.00
2019-05-10T15:16:50.023Z,32.00
2019-05-10T15:19:56.475Z,32.00
2019-05-10T15:22:44.325Z,32.00
2019-05-10T15:25:54.652Z,31.90
2019-05-10T15:28:40.408Z,32.00
2019-05-10T15:31:31.212Z,31.90
2019-05-10T15:34:25.774Z,31.70
2019-05-10T15:37:21.820Z,31.40
2019-05-10T15:40:16.536Z,31.10
2019-05-10T15:43:17.279Z,31.00
2019-05-10T15:46:06.332Z,30.80
2019-05-10T15:49:01.274Z,30.70
2019-05-10T15:54:52.297Z,30.30
2019-05-10T15:57:46.628Z,30.20
2019-05-10T15:59:23.402Z,30.50
2019-05-10T16:00:41.761Z,30.00
2019-05-10T16:03:36.219Z,30.00
2019-05-10T16:06:32.437Z,29.80
2019-05-10T16:09:26.124Z,29.70
2019-05-10T16:12:20.445Z,29.60
2019-05-10T16:15:20.087Z,29.50
2019-05-10T16:18:10.756Z,29.50
2019-05-10T16:21:09.808Z,29.40
2019-05-10T16:24:00.720Z,29.40
2019-05-10T16:26:59.912Z,29.30
2019-05-10T16:29:51.011Z,29.20
2019-05-10T16:32:45.748Z,29.20
2019-05-10T16:35:44.315Z,29.10
2019-05-10T16:38:35.815Z,29.00
2019-05-10T16:41:30.385Z,28.90
2019-05-10T16:44:24.753Z,28.90
2019-05-10T16:47:18.981Z,28.80
2019-05-10T16:50:13.468Z,28.80
2019-05-10T16:53:08.190Z,28.80
2019-05-10T16:56:02.507Z,28.70
2019-05-10T16:58:59.479Z,28.60
2019-05-10T17:02:03.126Z,28.60
2019-05-10T17:04:49.102Z,28.60
2019-05-10T17:07:43.900Z,28.50
2019-05-10T17:10:38.929Z,28.40
2019-05-10T17:13:36.471Z,28.40
2019-05-10T17:16:29.518Z,28.40
2019-05-10T17:19:27.923Z,28.40
2019-05-10T17:22:20.430Z,28.50
2019-05-10T17:25:15.066Z,28.40
2019-05-10T17:28:09.768Z,28.40
2019-05-10T17:31:07.716Z,28.40
2019-05-10T17:34:02.073Z,28.40
2019-05-10T17:36:58.132Z,28.30
2019-05-10T17:39:53.757Z,28.30
2019-05-10T17:42:51.502Z,28.20
2019-05-10T17:45:45.605Z,28.20
2019-05-10T17:48:40.888Z,28.10
2019-05-10T17:51:36.959Z,28.10
2019-05-10T17:54:33.778Z,28.10
2019-05-10T17:57:28.145Z,28.10
2019-05-10T18:00:24.515Z,28.00
2019-05-10T18:03:21.126Z,28.00
2019-05-10T18:06:23.572Z,27.90
2019-05-10T18:09:12.830Z,27.90
2019-05-10T18:12:07.860Z,27.90
2019-05-10T18:15:04.936Z,27.90
2019-05-10T18:18:02.775Z,27.80
2019-05-10T18:20:55.708Z,27.80
2019-05-10T18:23:52.581Z,27.70
2019-05-10T18:26:48.046Z,27.80
2019-05-10T18:29:42.899Z,27.80
2019-05-10T18:32:37.554Z,27.80
2019-05-10T18:35:31.626Z,27.70
2019-05-10T18:38:30.791Z,27.70
2019-05-10T18:41:21.773Z,27.70
2019-05-10T18:44:17.928Z,27.70
2019-05-10T18:47:12.827Z,27.60
2019-05-10T18:50:08.356Z,27.60
2019-05-10T18:53:03.221Z,27.60
2019-05-10T18:55:57.892Z,27.60
2019-05-10T18:58:52.747Z,27.50
2019-05-10T19:01:47.292Z,27.50
2019-05-10T19:04:45.665Z,27.40
2019-05-10T19:07:37.382Z,27.40
2019-05-10T19:10:33.009Z,27.40
2019-05-10T19:13:30.761Z,27.40
2019-05-10T19:16:26.156Z,27.40
2019-05-10T19:19:21.958Z,27.40
2019-05-10T19:22:17.651Z,27.40
2019-05-10T19:25:14.479Z,27.30
2019-05-10T19:28:08.331Z,27.30
2019-05-10T19:31:02.523Z,27.30
2019-05-10T19:33:57.388Z,27.30
2019-05-10T19:36:52.231Z,27.30
2019-05-10T19:39:46.875Z,27.30
2019-05-10T19:42:43.254Z,27.30
2019-05-10T19:45:37.418Z,27.20
2019-05-10T19:48:35.465Z,27.20
2019-05-10T19:51:28.748Z,27.20
2019-05-10T19:54:23.227Z,27.20
2019-05-10T19:57:18.846Z,27.20
2019-05-10T20:00:14.422Z,27.20
2019-05-10T20:03:09.469Z,27.20
2019-05-10T20:06:03.872Z,27.20
2019-05-10T20:08:59.072Z,27.20
2019-05-10T20:11:53.793Z,27.10
2019-05-10T20:14:48.472Z,27.10
2019-05-10T20:17:42.780Z,27.10
2019-05-10T20:20:36.957Z,27.10
2019-05-10T20:23:31.630Z,27.10
2019-05-10T20:26:25.844Z,27.00
2019-05-10T20:29:20.467Z,27.10
2019-05-10T20:32:15.086Z,27.10
2019-05-10T20:35:10.665Z,27.00
2019-05-10T20:38:04.681Z,27.10
2019-05-10T20:40:59.028Z,27.00
2019-05-10T20:43:53.744Z,27.00
2019-05-10T20:46:47.974Z,27.00
2019-05-10T20:49:43.076Z,27.00
2019-05-10T20:52:37.790Z,26.90
2019-05-10T20:55:32.092Z,27.00
2019-05-10T20:58:26.639Z,26.90
2019-05-10T21:01:20.736Z,26.90
2019-05-10T21:04:15.067Z,26.90
2019-05-10T21:07:09.588Z,26.90
2019-05-10T21:10:04.143Z,26.90
2019-05-10T21:12:58.324Z,26.90
2019-05-10T21:15:52.882Z,26.90
2019-05-10T21:18:47.441Z,26.80
2019-05-10T21:21:41.544Z,26.80
2019-05-10T21:24:36.068Z,26.80
2019-05-10T21:27:30.545Z,26.80
2019-05-10T21:30:24.898Z,26.80
2019-05-10T21:33:19.319Z,26.80
2019-05-10T21:36:13.580Z,26.80
2019-05-10T21:39:09.669Z,26.80
2019-05-10T21:42:03.885Z,26.70
2019-05-10T21:44:58.488Z,26.70
2019-05-10T21:47:52.915Z,26.80
2019-05-10T21:50:47.428Z,27.00
2019-05-10T21:53:42.046Z,27.20
2019-05-10T21:56:37.289Z,27.40
2019-05-10T21:59:32.048Z,27.60
2019-05-10T22:02:26.861Z,27.70
2019-05-10T22:05:21.135Z,27.80
2019-05-10T22:08:15.235Z,27.90
2019-05-10T22:11:09.711Z,28.00
2019-05-10T22:14:04.444Z,28.10
2019-05-10T22:16:58.789Z,28.20
2019-05-10T22:19:53.024Z,28.20
2019-05-10T22:22:47.598Z,28.30
2019-05-10T22:25:41.826Z,28.40
2019-05-10T22:28:36.100Z,28.50
2019-05-10T22:31:30.375Z,28.50
2019-05-10T22:34:24.850Z,28.60
2019-05-10T22:37:19.246Z,28.70
2019-05-10T22:40:14.038Z,28.70
2019-05-10T22:43:08.486Z,28.80
2019-05-10T22:46:02.612Z,28.80
2019-05-10T22:48:56.938Z,28.90
2019-05-10T22:51:51.648Z,29.00
2019-05-10T22:54:46.246Z,29.00
2019-05-10T22:57:40.665Z,29.10
2019-05-10T23:00:35.853Z,29.10
2019-05-10T23:03:30.037Z,29.10
2019-05-10T23:06:24.638Z,29.20
2019-05-10T23:09:24.616Z,29.20
2019-05-10T23:12:15.118Z,29.30
2019-05-10T23:15:09.614Z,29.30
2019-05-10T23:18:04.330Z,29.30
2019-05-10T23:20:59.104Z,29.40
2019-05-10T23:23:54.225Z,29.50
2019-05-10T23:26:49.042Z,29.50
2019-05-10T23:29:44.648Z,29.60
2019-05-10T23:32:38.957Z,29.50
2019-05-10T23:35:33.560Z,29.50
2019-05-10T23:38:28.197Z,29.60
2019-05-10T23:41:23.206Z,29.60
2019-05-10T23:44:17.405Z,29.70
2019-05-10T23:47:12.118Z,29.70
2019-05-10T23:50:06.836Z,29.70
2019-05-10T23:53:01.207Z,29.80
2019-05-10T23:55:55.548Z,29.80
2019-05-10T23:58:49.970Z,29.80
